Time;durP1;ratioP1;P1;durP2;ratioP2;P2;SDS_P1;SDS_P2;PMS_P1;PMS_P2;Temp;Humidity;BMP_temperature;BMP_pressure;BME280_temperature;BME280_humidity;BME280_pressure;Samples;Min_cycle;Max_cycle;Signal;HPM_P1;HPM_P2
2022/07/26 00:01:32;;;;;;;29.30;27.70;;;23.90;61.90;;;;;;4970199;28;21186;-71
2022/07/26 00:04:00;;;;;;;28.90;27.43;;;23.90;61.80;;;;;;4966992;28;20508;-71
2022/07/26 00:06:27;;;;;;;28.90;27.53;;;24.00;61.60;;;;;;4967875;28;20476;-71
2022/07/26 00:08:56;;;;;;;27.30;26.03;;;24.00;61.70;;;;;;4972167;28;20572;-71
2022/07/26 00:11:24;;;;;;;27.77;26.50;;;24.00;61.60;;;;;;4972990;28;20967;-70
2022/07/26 00:13:51;;;;;;;27.83;26.43;;;24.00;61.70;;;;;;4973616;28;20463;-71
2022/07/26 00:16:18;;;;;;;28.60;27.17;;;24.00;62.00;;;;;;4967257;28;20550;-70
2022/07/26 00:18:46;;;;;;;28.90;27.60;;;23.90;62.10;;;;;;4971797;28;20569;-71
2022/07/26 00:21:13;;;;;;;28.63;27.20;;;23.90;62.40;;;;;;4973049;28;20546;-71
2022/07/26 00:23:40;;;;;;;27.90;26.50;;;23.80;62.50;;;;;;4972226;28;20557;-70
2022/07/26 00:26:08;;;;;;;27.80;26.40;;;23.80;62.70;;;;;;4972547;28;20829;-70
2022/07/26 00:28:35;;;;;;;27.40;26.00;;;23.80;62.70;;;;;;4973055;28;20993;-70
2022/07/26 00:31:02;;;;;;;28.50;27.10;;;23.90;62.70;;;;;;4972007;28;20540;-71
2022/07/26 00:33:29;;;;;;;29.20;27.80;;;23.90;62.50;;;;;;4973575;28;20897;-71
2022/07/26 00:35:56;;;;;;;28.63;27.23;;;23.90;62.50;;;;;;4974233;28;20904;-71
2022/07/26 00:38:23;;;;;;;28.20;26.80;;;24.00;62.20;;;;;;4973438;28;20462;-71
2022/07/26 00:40:51;;;;;;;30.10;28.20;;;24.00;62.10;;;;;;4970045;28;20539;-71
2022/07/26 00:43:19;;;;;;;28.33;26.63;;;24.00;62.10;;;;;;4967901;28;20858;-70
2022/07/26 00:45:46;;;;;;;28.67;27.20;;;24.00;62.20;;;;;;4972755;28;20569;-71
2022/07/26 00:48:13;;;;;;;28.80;27.33;;;24.00;62.10;;;;;;4970677;28;20992;-71
2022/07/26 00:50:40;;;;;;;27.73;26.33;;;24.10;62.20;;;;;;4972159;28;20464;-71
2022/07/26 00:53:07;;;;;;;27.70;26.30;;;24.10;62.10;;;;;;4973233;28;20455;-71
2022/07/26 00:55:34;;;;;;;27.50;26.20;;;24.10;62.00;;;;;;4971492;28;20463;-71
2022/07/26 00:58:01;;;;;;;26.60;25.20;;;24.10;62.20;;;;;;4971905;28;20546;-71
2022/07/26 01:00:30;;;;;;;27.10;25.73;;;24.00;62.40;;;;;;4971666;28;20510;-70
2022/07/26 01:02:59;;;;;;;27.00;25.60;;;24.10;62.50;;;;;;4972457;28;20487;-70
2022/07/26 01:05:27;;;;;;;27.10;25.70;;;24.20;62.40;;;;;;4972589;28;20517;-70
2022/07/26 01:07:55;;;;;;;27.13;25.80;;;24.20;62.30;;;;;;4972024;28;20559;-70
2022/07/26 01:10:21;;;;;;;28.00;26.60;;;24.20;62.40;;;;;;4971316;28;20569;-71
2022/07/26 01:12:49;;;;;;;28.23;26.30;;;24.10;63.00;;;;;;4970712;28;20546;-71
2022/07/26 01:15:17;;;;;;;27.93;26.63;;;24.00;63.50;;;;;;4970923;28;20537;-71
2022/07/26 01:17:46;;;;;;;27.27;26.07;;;23.90;64.20;;;;;;4973997;28;20463;-71
2022/07/26 01:20:14;;;;;;;27.97;26.33;;;23.70;64.80;;;;;;4972708;28;20507;-70
2022/07/26 01:22:43;;;;;;;27.20;25.97;;;23.70;65.50;;;;;;4968956;28;20558;-70
2022/07/26 01:25:10;;;;;;;28.70;27.40;;;23.40;67.10;;;;;;4970435;28;21159;-70
2022/07/26 01:27:39;;;;;;;29.07;27.67;;;23.10;69.50;;;;;;4972140;28;20467;-70
2022/07/26 01:30:08;;;;;;;28.90;27.60;;;22.60;71.30;;;;;;4968672;28;20486;-70
2022/07/26 01:32:35;;;;;;;28.77;27.47;;;22.40;72.60;;;;;;4970906;28;20548;-70
2022/07/26 01:35:02;;;;;;;30.93;29.53;;;22.20;73.90;;;;;;4971886;28;20540;-70
2022/07/26 01:37:29;;;;;;;30.30;29.00;;;21.90;75.40;;;;;;4971044;28;20558;-70
2022/07/26 01:39:57;;;;;;;28.60;27.40;;;21.80;76.10;;;;;;4971592;28;20573;-70
2022/07/26 01:42:24;;;;;;;28.73;27.20;;;21.60;76.90;;;;;;4971921;28;20553;-70
2022/07/26 01:44:51;;;;;;;27.70;26.50;;;21.70;76.80;;;;;;4972573;28;20551;-70
2022/07/26 01:47:18;;;;;;;28.27;27.07;;;21.80;76.50;;;;;;4970112;28;20595;-70
2022/07/26 01:49:45;;;;;;;28.07;26.77;;;21.90;76.20;;;;;;4970307;28;20887;-70
2022/07/26 01:52:12;;;;;;;28.13;26.93;;;22.00;76.10;;;;;;4970719;28;20469;-70
2022/07/26 01:54:40;;;;;;;29.00;27.80;;;22.10;75.40;;;;;;4970463;28;22129;-70
2022/07/26 01:57:08;;;;;;;28.77;27.37;;;22.20;75.00;;;;;;4970657;28;20544;-70
2022/07/26 01:59:35;;;;;;;27.40;26.20;;;22.20;74.40;;;;;;4970805;28;20491;-70
2022/07/26 02:02:02;;;;;;;27.80;26.60;;;22.20;74.30;;;;;;4970076;28;20557;-70
2022/07/26 02:07:13;;;;;;;32.37;30.93;;;22.30;73.60;;;;;;4958559;28;20540;-70
2022/07/26 02:09:40;;;;;;;28.80;27.50;;;22.40;73.20;;;;;;4971240;28;20475;-72
2022/07/26 02:12:09;;;;;;;30.97;29.10;;;22.50;72.80;;;;;;4969782;28;20553;-72
2022/07/26 02:14:36;;;;;;;29.83;28.27;;;22.60;72.60;;;;;;4969197;28;20497;-72
2022/07/26 02:17:03;;;;;;;29.33;28.00;;;22.60;72.30;;;;;;4966410;28;20467;-72
2022/07/26 02:19:31;;;;;;;36.83;35.00;;;22.70;71.60;;;;;;4970616;28;20578;-72
2022/07/26 02:21:58;;;;;;;33.47;32.07;;;22.70;71.40;;;;;;4971572;28;21190;-71
2022/07/26 02:24:27;;;;;;;27.70;26.40;;;22.80;71.40;;;;;;4969225;28;20539;-72
2022/07/26 02:26:55;;;;;;;29.03;27.83;;;22.90;71.40;;;;;;4971115;28;20483;-72
2022/07/26 02:29:24;;;;;;;30.90;29.60;;;22.90;71.60;;;;;;4969317;28;20606;-70
2022/07/26 02:31:51;;;;;;;28.70;27.50;;;22.90;71.70;;;;;;4970087;28;20550;-70
2022/07/26 02:34:18;;;;;;;34.50;33.00;;;22.90;71.60;;;;;;4970956;28;20491;-71
2022/07/26 02:36:45;;;;;;;31.37;30.07;;;22.90;71.60;;;;;;4969472;28;20557;-70
2022/07/26 02:39:13;;;;;;;32.93;31.53;;;23.00;71.60;;;;;;4967982;28;20916;-70
2022/07/26 02:41:40;;;;;;;31.17;29.80;;;22.90;71.70;;;;;;4970416;28;20550;-70
2022/07/26 02:44:07;;;;;;;30.27;28.83;;;23.00;71.40;;;;;;4971009;28;20490;-70
2022/07/26 02:46:36;;;;;;;29.10;27.90;;;23.10;71.20;;;;;;4968169;28;20578;-70
2022/07/26 02:49:03;;;;;;;41.07;39.03;;;23.10;71.30;;;;;;4969436;28;20490;-71
2022/07/26 02:51:30;;;;;;;33.90;32.50;;;23.10;71.40;;;;;;4969730;28;20566;-70
2022/07/26 02:53:57;;;;;;;30.30;29.00;;;23.10;71.40;;;;;;4969258;28;20555;-72
2022/07/26 02:56:24;;;;;;;31.83;30.43;;;23.20;71.00;;;;;;4968781;28;20542;-70
2022/07/26 02:58:51;;;;;;;32.40;30.80;;;23.20;70.80;;;;;;4969074;28;21316;-70
2022/07/26 03:01:18;;;;;;;35.20;33.50;;;23.20;70.70;;;;;;4969897;28;20923;-70
2022/07/26 03:03:47;;;;;;;34.47;33.07;;;23.20;70.60;;;;;;4969396;28;20514;-70
2022/07/26 03:06:14;;;;;;;32.60;31.17;;;23.10;70.50;;;;;;4968297;28;20474;-70
2022/07/26 03:08:41;;;;;;;38.37;36.40;;;23.10;70.70;;;;;;4969647;28;20486;-70
2022/07/26 03:11:08;;;;;;;38.43;36.83;;;23.10;70.70;;;;;;4970663;28;20876;-70
2022/07/26 03:13:35;;;;;;;39.27;37.57;;;23.10;70.60;;;;;;4970569;28;20470;-70
2022/07/26 03:16:02;;;;;;;49.90;47.50;;;23.10;70.50;;;;;;4965662;28;20495;-70
2022/07/26 03:18:29;;;;;;;36.70;35.10;;;23.10;70.50;;;;;;4967057;28;20557;-72
2022/07/26 03:20:57;;;;;;;32.67;31.27;;;23.10;70.60;;;;;;4969134;28;20551;-72
2022/07/26 03:23:24;;;;;;;31.93;30.53;;;23.10;70.50;;;;;;4968769;28;20474;-72
2022/07/26 03:25:51;;;;;;;41.30;39.60;;;23.00;70.60;;;;;;4970476;28;20977;-72
2022/07/26 03:28:18;;;;;;;29.53;28.20;;;23.00;70.60;;;;;;4969644;28;20547;-72
2022/07/26 03:30:45;;;;;;;36.73;35.07;;;23.00;70.40;;;;;;4969680;28;20464;-72
2022/07/26 03:33:12;;;;;;;30.20;28.80;;;23.00;70.60;;;;;;4966883;28;20565;-72
2022/07/26 03:35:39;;;;;;;33.10;31.70;;;22.90;70.70;;;;;;4970935;28;20459;-72
2022/07/26 03:38:07;;;;;;;42.17;40.23;;;22.90;70.70;;;;;;4967576;28;20542;-72
2022/07/26 03:40:34;;;;;;;34.63;33.13;;;22.90;70.50;;;;;;4970094;28;20499;-72
2022/07/26 03:43:01;;;;;;;46.73;44.63;;;22.90;70.80;;;;;;4968837;28;20830;-72
2022/07/26 03:45:29;;;;;;;36.13;34.37;;;22.80;70.90;;;;;;4973537;28;20537;-72
2022/07/26 03:47:56;;;;;;;35.17;33.57;;;22.80;71.10;;;;;;4971109;28;20486;-72
2022/07/26 03:50:23;;;;;;;32.00;30.70;;;22.80;71.00;;;;;;4972874;28;20600;-72
2022/07/26 03:52:50;;;;;;;43.47;41.43;;;22.80;70.80;;;;;;4973437;28;20555;-72
2022/07/26 03:58:03;;;;;;;34.10;32.70;;;22.70;71.20;;;;;;4973226;28;20575;-72
2022/07/26 04:00:29;;;;;;;46.47;44.40;;;22.70;71.00;;;;;;4973253;28;20489;-71
2022/07/26 04:02:57;;;;;;;53.07;50.67;;;22.70;71.40;;;;;;4970418;28;20547;-72
2022/07/26 04:05:23;;;;;;;34.60;33.20;;;22.60;71.60;;;;;;4972708;28;20563;-72
2022/07/26 04:07:50;;;;;;;50.50;48.23;;;22.60;71.50;;;;;;4972893;28;20847;-72
2022/07/26 04:10:19;;;;;;;31.90;30.50;;;22.60;71.60;;;;;;4973730;28;20486;-72
2022/07/26 04:12:46;;;;;;;47.50;45.37;;;22.60;71.70;;;;;;4972933;28;20592;-71
2022/07/26 04:15:14;;;;;;;35.57;34.07;;;22.50;72.00;;;;;;4973202;28;20986;-71
2022/07/26 04:17:42;;;;;;;30.63;29.33;;;22.50;71.80;;;;;;4968489;28;21178;-71
2022/07/26 04:20:11;;;;;;;30.27;29.07;;;22.40;72.10;;;;;;4974601;28;20542;-71
2022/07/26 04:22:39;;;;;;;42.57;40.50;;;22.40;72.30;;;;;;4972200;28;20541;-71
2022/07/26 04:25:07;;;;;;;46.33;44.20;;;22.40;72.30;;;;;;4971807;28;21093;-73
2022/07/26 04:27:36;;;;;;;32.07;30.57;;;22.40;72.20;;;;;;4972882;28;20478;-70
2022/07/26 04:30:04;;;;;;;31.80;30.30;;;22.40;72.30;;;;;;4973145;28;20588;-71
2022/07/26 04:32:31;;;;;;;37.53;35.87;;;22.40;72.10;;;;;;4972428;28;20549;-72
2022/07/26 04:34:58;;;;;;;34.50;33.10;;;22.40;72.20;;;;;;4973152;28;21254;-72
2022/07/26 04:37:25;;;;;;;45.17;43.17;;;22.40;72.30;;;;;;4971628;28;20583;-72
2022/07/26 04:39:51;;;;;;;33.50;32.07;;;22.30;72.60;;;;;;4974105;28;20493;-71
2022/07/26 04:42:18;;;;;;;34.07;32.67;;;22.40;72.60;;;;;;4970078;28;20467;-71
2022/07/26 04:44:47;;;;;;;31.40;29.73;;;22.30;72.30;;;;;;4971524;28;20464;-71
2022/07/26 04:47:14;;;;;;;51.93;49.43;;;22.30;72.50;;;;;;4973198;28;20483;-70
2022/07/26 04:49:40;;;;;;;39.53;37.80;;;22.30;72.70;;;;;;4969216;28;20575;-72
2022/07/26 04:52:07;;;;;;;42.37;40.37;;;22.40;72.60;;;;;;4969181;28;20971;-71
2022/07/26 04:54:34;;;;;;;28.40;27.20;;;22.50;72.20;;;;;;4972174;28;20525;-72
2022/07/26 04:57:01;;;;;;;44.13;42.07;;;22.50;72.30;;;;;;4972128;28;20544;-71
2022/07/26 04:59:28;;;;;;;30.70;29.40;;;22.60;72.00;;;;;;4971621;28;20565;-71
2022/07/26 05:01:57;;;;;;;46.53;44.27;;;22.70;71.70;;;;;;4967555;28;20545;-72
2022/07/26 05:04:23;;;;;;;34.30;32.80;;;22.70;71.70;;;;;;4973041;28;20474;-71
2022/07/26 05:06:50;;;;;;;36.90;35.30;;;22.70;71.60;;;;;;4967263;28;21927;-71
2022/07/26 05:09:17;;;;;;;35.77;34.17;;;22.80;71.10;;;;;;4966796;28;20538;-75
2022/07/26 05:11:44;;;;;;;28.80;27.50;;;23.00;70.70;;;;;;4969833;28;20471;-77
2022/07/26 05:14:11;;;;;;;48.13;45.93;;;23.00;70.60;;;;;;4973957;28;20455;-74
2022/07/26 05:16:38;;;;;;;37.13;34.83;;;23.00;70.50;;;;;;4967825;28;20828;-76
2022/07/26 05:19:06;;;;;;;62.13;59.33;;;23.20;70.30;;;;;;4977276;28;20506;-76
2022/07/26 05:21:33;;;;;;;35.20;33.70;;;23.40;69.60;;;;;;4979920;28;20498;-75
2022/07/26 05:24:01;;;;;;;32.33;30.93;;;23.50;69.10;;;;;;4979744;28;20451;-73
2022/07/26 05:26:28;;;;;;;31.83;30.40;;;23.70;68.20;;;;;;4972091;28;20561;-73
2022/07/26 05:28:55;;;;;;;31.50;30.00;;;23.60;68.60;;;;;;4975652;28;20478;-73
2022/07/26 05:31:22;;;;;;;34.00;32.60;;;23.80;68.10;;;;;;4967993;28;20467;-73
2022/07/26 05:33:49;;;;;;;59.10;56.60;;;24.00;67.70;;;;;;4967442;28;20471;-76
2022/07/26 05:36:18;;;;;;;35.30;33.30;;;24.10;67.60;;;;;;4972461;28;20545;-75
2022/07/26 05:38:45;;;;;;;34.53;33.00;;;24.20;67.30;;;;;;4968562;28;20545;-73
2022/07/26 05:41:12;;;;;;;38.40;36.70;;;24.20;67.00;;;;;;4969274;28;20457;-76
2022/07/26 05:43:39;;;;;;;40.30;38.50;;;24.20;67.00;;;;;;4967325;28;20459;-74
2022/07/26 05:46:06;;;;;;;51.93;49.43;;;24.10;67.40;;;;;;4970438;28;20548;-76
2022/07/26 05:48:34;;;;;;;52.07;49.67;;;24.00;67.60;;;;;;4968156;28;20856;-75
2022/07/26 05:51:01;;;;;;;35.17;33.10;;;23.80;68.10;;;;;;4965629;28;20543;-75
2022/07/26 05:53:29;;;;;;;36.53;34.93;;;23.70;68.50;;;;;;4970344;28;20481;-75
2022/07/26 05:55:56;;;;;;;48.53;46.13;;;23.60;68.70;;;;;;4969753;28;20518;-76
2022/07/26 05:58:23;;;;;;;33.90;32.50;;;23.70;68.30;;;;;;4962658;28;20518;-74
2022/07/26 06:00:50;;;;;;;39.67;37.93;;;23.60;68.70;;;;;;4968117;28;20545;-74
2022/07/26 06:03:22;;;;;;;56.40;53.87;;;23.60;68.90;;;;;;4958641;28;20585;-74
2022/07/26 06:05:51;;;;;;;44.90;42.80;;;23.60;68.60;;;;;;4962456;28;20470;-74
2022/07/26 06:08:18;;;;;;;34.60;33.07;;;23.60;68.70;;;;;;4954975;28;20521;-75
2022/07/26 06:10:47;;;;;;;48.77;46.30;;;23.60;68.70;;;;;;4967899;28;20554;-74
2022/07/26 06:13:15;;;;;;;35.70;34.30;;;23.60;68.60;;;;;;4963495;28;20546;-74
2022/07/26 06:15:42;;;;;;;35.73;34.03;;;23.60;68.30;;;;;;4965879;28;20459;-74
2022/07/26 06:18:09;;;;;;;42.37;40.30;;;23.50;68.40;;;;;;4967603;28;20551;-74
2022/07/26 06:20:39;;;;;;;46.27;44.23;;;23.50;67.80;;;;;;4968096;28;20529;-75
2022/07/26 06:23:06;;;;;;;43.37;41.43;;;23.50;65.80;;;;;;4970470;28;20538;-74
2022/07/26 06:25:33;;;;;;;35.07;33.47;;;23.20;64.70;;;;;;4970881;28;20459;-76
2022/07/26 06:28:04;;;;;;;36.43;34.73;;;23.20;64.50;;;;;;4968685;28;20517;-74
2022/07/26 06:30:31;;;;;;;41.90;39.97;;;23.40;64.70;;;;;;4972091;28;20482;-74
2022/07/26 06:32:58;;;;;;;48.63;45.80;;;23.30;63.90;;;;;;4969693;28;20898;-74
2022/07/26 06:35:29;;;;;;;57.43;54.70;;;23.30;63.40;;;;;;4969477;28;20544;-74
2022/07/26 06:37:57;;;;;;;57.37;54.60;;;23.30;63.70;;;;;;4971499;28;20457;-74
2022/07/26 06:40:24;;;;;;;53.00;50.60;;;23.40;61.30;;;;;;4969828;28;20577;-73
2022/07/26 06:42:52;;;;;;;33.77;32.10;;;23.40;61.90;;;;;;4970576;28;20538;-75
2022/07/26 06:45:20;;;;;;;45.87;43.67;;;23.30;62.30;;;;;;4967156;28;20466;-76
2022/07/26 06:47:47;;;;;;;33.30;31.90;;;23.20;60.60;;;;;;4969720;28;20582;-74
2022/07/26 06:50:14;;;;;;;50.13;47.80;;;23.20;60.10;;;;;;4970086;28;20508;-74
2022/07/26 06:52:41;;;;;;;44.77;42.70;;;23.20;60.30;;;;;;4969802;28;20515;-73
2022/07/26 06:55:09;;;;;;;42.20;40.10;;;23.20;60.00;;;;;;4970019;28;20986;-75
2022/07/26 06:57:36;;;;;;;49.97;47.87;;;23.00;59.50;;;;;;4968603;28;20457;-71
2022/07/26 07:00:06;;;;;;;35.00;33.30;;;22.80;59.90;;;;;;4969749;28;20609;-71
2022/07/26 07:02:34;;;;;;;44.47;42.20;;;22.90;59.50;;;;;;4966075;28;20530;-73
2022/07/26 07:05:02;;;;;;;37.80;36.10;;;23.00;59.30;;;;;;4969188;28;20469;-71
2022/07/26 07:07:28;;;;;;;51.83;49.37;;;23.30;57.80;;;;;;4968811;28;20474;-72
2022/07/26 07:09:55;;;;;;;47.87;45.63;;;23.60;57.90;;;;;;4970166;28;20574;-72
2022/07/26 07:12:22;;;;;;;40.53;38.77;;;23.70;56.00;;;;;;4970696;28;20562;-72
2022/07/26 07:14:49;;;;;;;39.73;38.13;;;23.60;56.20;;;;;;4969755;28;21014;-72
2022/07/26 07:17:19;;;;;;;45.57;43.67;;;23.50;56.80;;;;;;4967804;28;21028;-72
2022/07/26 07:19:48;;;;;;;62.93;60.20;;;23.70;56.30;;;;;;4972887;28;20478;-73
2022/07/26 07:22:15;;;;;;;37.47;35.87;;;23.80;56.10;;;;;;4961224;28;20964;-72
2022/07/26 07:24:43;;;;;;;44.73;42.63;;;23.90;56.20;;;;;;4969884;28;20513;-73
2022/07/26 07:27:10;;;;;;;44.30;42.13;;;24.00;55.10;;;;;;4968685;28;21047;-71
2022/07/26 07:29:38;;;;;;;42.03;40.23;;;24.00;54.50;;;;;;4968910;28;20479;-72
2022/07/26 07:32:05;;;;;;;39.80;38.00;;;24.00;54.60;;;;;;4968234;28;20479;-72
2022/07/26 07:34:33;;;;;;;35.73;34.07;;;24.00;54.70;;;;;;4973218;28;20466;-72
2022/07/26 07:37:03;;;;;;;51.93;49.60;;;23.80;55.90;;;;;;4969201;28;20466;-72
2022/07/26 07:39:30;;;;;;;49.83;47.63;;;23.70;55.50;;;;;;4970519;28;20581;-72
2022/07/26 07:41:57;;;;;;;45.40;43.20;;;23.80;55.60;;;;;;4967874;28;20546;-72
2022/07/26 07:44:24;;;;;;;36.67;34.87;;;23.70;55.60;;;;;;4969786;28;20486;-72
2022/07/26 07:46:51;;;;;;;50.97;48.57;;;23.70;56.00;;;;;;4968886;28;20503;-73
2022/07/26 07:49:18;;;;;;;34.93;33.43;;;23.60;56.00;;;;;;4968340;28;20911;-72
2022/07/26 07:51:45;;;;;;;38.37;36.57;;;23.80;55.90;;;;;;4969551;28;20521;-72
2022/07/26 07:54:15;;;;;;;37.03;35.37;;;24.00;55.50;;;;;;4967527;28;20805;-74
2022/07/26 07:56:42;;;;;;;40.93;38.93;;;24.20;54.90;;;;;;4967637;28;20464;-74
2022/07/26 07:59:09;;;;;;;40.20;38.20;;;24.50;53.90;;;;;;4969608;28;21083;-75
2022/07/26 08:01:37;;;;;;;33.37;31.87;;;24.50;53.90;;;;;;4968030;28;20559;-74
2022/07/26 08:04:04;;;;;;;37.03;35.40;;;24.60;54.30;;;;;;4969519;28;20467;-74
2022/07/26 08:06:31;;;;;;;38.63;36.83;;;24.90;53.60;;;;;;4970168;28;20495;-72
2022/07/26 08:08:58;;;;;;;43.80;41.90;;;24.90;53.50;;;;;;4969468;28;20586;-74
2022/07/26 08:11:26;;;;;;;53.23;50.83;;;24.90;53.00;;;;;;4968550;28;20467;-73
2022/07/26 08:13:53;;;;;;;37.23;35.73;;;24.80;53.40;;;;;;4969788;28;20471;-70
2022/07/26 08:16:23;;;;;;;39.20;37.40;;;25.00;53.10;;;;;;4969359;28;20566;-70
2022/07/26 08:18:50;;;;;;;52.30;49.93;;;25.30;52.40;;;;;;4968254;28;20486;-70
2022/07/26 08:21:17;;;;;;;33.83;32.23;;;25.10;51.70;;;;;;4955122;28;20882;-70
2022/07/26 08:23:44;;;;;;;48.40;46.27;;;25.10;52.00;;;;;;4969769;28;20486;-71
2022/07/26 08:26:11;;;;;;;43.70;41.33;;;25.20;52.00;;;;;;4966203;28;20550;-71
2022/07/26 08:28:39;;;;;;;41.13;39.30;;;25.30;52.00;;;;;;4968142;28;20942;-71
2022/07/26 08:31:07;;;;;;;45.30;43.13;;;25.50;51.30;;;;;;4968062;28;20459;-71
2022/07/26 08:33:34;;;;;;;55.60;53.30;;;25.50;50.00;;;;;;4970584;28;20542;-73
2022/07/26 08:36:01;;;;;;;39.13;37.40;;;25.00;51.30;;;;;;4971025;28;20542;-71
2022/07/26 08:38:28;;;;;;;33.43;32.03;;;24.80;51.30;;;;;;4973777;28;20483;-72
2022/07/26 08:40:55;;;;;;;36.33;34.43;;;24.40;52.20;;;;;;4972296;28;20562;-70
2022/07/26 08:43:23;;;;;;;52.63;50.10;;;24.50;52.30;;;;;;4972508;28;20467;-71
2022/07/26 08:45:51;;;;;;;43.20;41.10;;;24.70;52.50;;;;;;4972352;28;20554;-72
2022/07/26 08:48:18;;;;;;;43.13;41.27;;;24.90;52.30;;;;;;4972610;28;20487;-71
2022/07/26 08:50:45;;;;;;;46.27;44.03;;;25.20;51.40;;;;;;4970620;28;20826;-70
2022/07/26 08:53:12;;;;;;;50.20;48.03;;;25.50;50.90;;;;;;4973226;28;20500;-71
2022/07/26 08:55:39;;;;;;;50.40;48.13;;;25.70;50.00;;;;;;4972731;28;20997;-71
2022/07/26 08:58:06;;;;;;;40.77;38.80;;;25.90;49.90;;;;;;4972631;28;20487;-71
2022/07/26 09:00:34;;;;;;;55.03;52.63;;;26.00;49.20;;;;;;4971748;28;21224;-72
2022/07/26 09:03:03;;;;;;;44.00;42.13;;;25.80;49.40;;;;;;4972265;28;20504;-71
2022/07/26 09:05:32;;;;;;;48.97;46.57;;;25.70;48.80;;;;;;4971272;28;20464;-71
2022/07/26 09:08:00;;;;;;;41.13;39.23;;;25.40;49.80;;;;;;4969609;28;20479;-71
2022/07/26 09:10:28;;;;;;;56.97;54.37;;;25.70;49.70;;;;;;4972103;28;20569;-72
2022/07/26 09:12:55;;;;;;;35.03;33.53;;;26.00;48.70;;;;;;4967629;28;20510;-72
2022/07/26 09:15:25;;;;;;;40.77;38.53;;;26.00;48.20;;;;;;4962487;28;20897;-70
2022/07/26 09:17:54;;;;;;;48.87;46.33;;;25.80;48.90;;;;;;4971533;28;20490;-72
2022/07/26 09:20:24;;;;;;;39.53;37.83;;;25.90;48.40;;;;;;4972146;28;20480;-71
2022/07/26 09:23:02;;;;;;;46.70;44.47;;;25.80;48.40;;;;;;4972897;28;20541;-70
2022/07/26 09:25:32;;;;;;;54.57;52.10;;;25.70;48.80;;;;;;4971536;28;20945;-71
2022/07/26 09:27:59;;;;;;;57.50;54.90;;;26.00;48.40;;;;;;4973042;28;21017;-70
2022/07/26 09:30:28;;;;;;;38.53;36.93;;;26.20;48.30;;;;;;4970951;28;20850;-71
2022/07/26 09:33:01;;;;;;;46.57;44.53;;;26.60;47.30;;;;;;4973361;28;20464;-71
2022/07/26 09:35:32;;;;;;;36.83;35.30;;;26.90;46.70;;;;;;4971436;28;20524;-71
2022/07/26 09:37:59;;;;;;;37.80;36.10;;;26.90;46.20;;;;;;4972525;28;20516;-71
2022/07/26 09:40:33;;;;;;;39.10;37.30;;;26.70;47.40;;;;;;4972339;28;20494;-71
2022/07/26 09:43:02;;;;;;;47.43;45.17;;;26.60;46.80;;;;;;4971132;28;20465;-71
2022/07/26 09:45:31;;;;;;;41.53;39.67;;;26.20;47.60;;;;;;4969608;28;20477;-71
2022/07/26 09:47:58;;;;;;;40.83;39.07;;;26.30;47.60;;;;;;4972235;28;20572;-71
2022/07/26 09:50:27;;;;;;;46.50;44.47;;;26.40;47.40;;;;;;4962589;28;21014;-71
2022/07/26 09:53:01;;;;;;;41.07;39.27;;;26.30;47.30;;;;;;4970500;28;20518;-71
2022/07/26 09:55:28;;;;;;;46.87;44.87;;;26.30;47.40;;;;;;4972692;28;20565;-69
2022/07/26 09:57:55;;;;;;;56.00;53.20;;;26.30;47.40;;;;;;4972550;28;20449;-69
2022/07/26 10:00:24;;;;;;;41.60;39.70;;;26.50;47.50;;;;;;4972286;28;20935;-69
2022/07/26 10:02:52;;;;;;;39.47;37.67;;;26.70;47.40;;;;;;4970564;28;20459;-69
2022/07/26 10:05:20;;;;;;;48.67;46.57;;;26.80;46.60;;;;;;4972083;28;20484;-69
2022/07/26 10:07:47;;;;;;;51.33;49.03;;;26.40;48.00;;;;;;4969267;28;20466;-69
2022/07/26 10:10:21;;;;;;;36.67;35.10;;;25.60;49.50;;;;;;4971558;28;21096;-69
2022/07/26 10:12:51;;;;;;;37.20;35.63;;;25.10;51.10;;;;;;4971062;28;20989;-69
2022/07/26 10:15:35;;;;;;;49.47;47.27;;;24.90;51.30;;;;;;4971934;28;21005;-69
2022/07/26 10:18:03;;;;;;;37.83;36.23;;;24.70;52.10;;;;;;4969915;28;20542;-69
2022/07/26 10:20:54;;;;;;;52.07;49.83;;;24.50;52.80;;;;;;4968181;28;20486;-68
2022/07/26 10:23:45;;;;;;;54.63;52.17;;;24.30;53.30;;;;;;4961375;28;20518;-69
2022/07/26 10:26:39;;;;;;;50.20;47.93;;;24.50;53.00;;;;;;4970613;28;21080;-69
2022/07/26 10:29:25;;;;;;;47.53;45.47;;;24.70;52.60;;;;;;4969793;28;20501;-69
2022/07/26 10:32:17;;;;;;;38.80;37.10;;;24.80;51.80;;;;;;4970917;28;20522;-69
2022/07/26 10:34:45;;;;;;;35.33;33.73;;;24.50;52.00;;;;;;4965501;28;20495;-68
2022/07/26 10:37:22;;;;;;;52.90;50.60;;;24.70;52.20;;;;;;4971530;28;20512;-69
2022/07/26 10:40:09;;;;;;;40.73;38.93;;;24.90;51.90;;;;;;4970443;28;21102;-69
2022/07/26 10:42:44;;;;;;;38.43;36.83;;;25.10;52.20;;;;;;4969849;28;20557;-69
2022/07/26 10:45:20;;;;;;;41.83;40.20;;;25.10;51.60;;;;;;4957951;28;20577;-69
2022/07/26 10:48:15;;;;;;;38.80;37.20;;;25.20;51.60;;;;;;4969256;28;20506;-69
2022/07/26 10:50:45;;;;;;;41.00;39.10;;;25.40;51.40;;;;;;4959959;28;20569;-69
2022/07/26 10:53:18;;;;;;;51.60;49.33;;;25.70;50.30;;;;;;4966337;28;21033;-69
2022/07/26 10:55:47;;;;;;;50.77;48.33;;;25.60;49.50;;;;;;4969324;28;20561;-69
2022/07/26 10:58:16;;;;;;;40.13;38.40;;;25.50;49.80;;;;;;4969142;28;20947;-69
2022/07/26 11:00:54;;;;;;;35.80;34.30;;;25.50;50.10;;;;;;4971352;28;20478;-69
2022/07/26 11:03:22;;;;;;;55.83;53.43;;;25.70;49.90;;;;;;4960850;28;20949;-69
2022/07/26 11:05:49;;;;;;;41.20;39.30;;;25.40;49.80;;;;;;4969288;28;20550;-70
2022/07/26 11:08:16;;;;;;;37.43;35.73;;;25.00;50.60;;;;;;4971014;28;20803;-69
2022/07/26 11:10:45;;;;;;;50.20;47.90;;;25.20;50.70;;;;;;4968078;28;20467;-68
2022/07/26 11:13:17;;;;;;;54.47;51.87;;;25.50;49.90;;;;;;4965632;28;20570;-76
2022/07/26 11:15:46;;;;;;;44.80;42.80;;;25.70;49.50;;;;;;4967481;28;20546;-72
2022/07/26 11:18:16;;;;;;;38.53;36.83;;;25.70;49.60;;;;;;4963889;28;20549;-70
2022/07/26 11:20:45;;;;;;;39.30;37.60;;;25.70;49.60;;;;;;4970157;28;20550;-70
2022/07/26 11:23:31;;;;;;;49.70;47.50;;;25.70;49.50;;;;;;4970608;28;20503;-70
2022/07/26 11:26:11;;;;;;;57.57;54.97;;;25.60;49.40;;;;;;4969801;28;20816;-70
2022/07/26 11:29:00;;;;;;;38.07;36.47;;;25.70;49.60;;;;;;4964525;28;20491;-71
2022/07/26 11:31:38;;;;;;;47.87;45.83;;;25.70;49.20;;;;;;4954529;28;20492;-73
2022/07/26 11:34:07;;;;;;;49.13;47.00;;;25.60;48.90;;;;;;4962991;28;20555;-73
2022/07/26 11:36:37;;;;;;;52.37;49.70;;;25.60;49.40;;;;;;4954993;28;20462;-74
2022/07/26 11:39:06;;;;;;;43.67;41.67;;;25.90;48.70;;;;;;4959005;28;20556;-73
2022/07/26 11:41:33;;;;;;;40.03;38.43;;;25.70;48.60;;;;;;4958144;28;20461;-70
2022/07/26 11:44:03;;;;;;;58.30;55.87;;;25.70;48.90;;;;;;4955807;28;20470;-73
2022/07/26 11:46:36;;;;;;;42.77;40.50;;;25.70;48.50;;;;;;4955123;28;20459;-72
2022/07/26 11:49:04;;;;;;;38.53;37.03;;;25.90;48.10;;;;;;4960404;28;20575;-73
2022/07/26 11:51:32;;;;;;;60.73;58.00;;;25.90;47.70;;;;;;4965575;28;20821;-73
2022/07/26 11:54:03;;;;;;;38.40;36.80;;;26.10;47.80;;;;;;4971340;28;20475;-74
2022/07/26 11:56:31;;;;;;;44.80;42.90;;;25.90;47.70;;;;;;4968411;28;20496;-73
2022/07/26 11:58:58;;;;;;;49.03;46.93;;;25.90;47.60;;;;;;4969180;28;20477;-73
2022/07/26 12:01:28;;;;;;;65.00;62.40;;;25.70;47.50;;;;;;4968954;28;20497;-73
2022/07/26 12:03:56;;;;;;;55.90;53.50;;;25.50;47.90;;;;;;4968563;28;20488;-75
2022/07/26 12:06:27;;;;;;;41.63;39.80;;;25.60;48.00;;;;;;4972777;28;20470;-74
2022/07/26 12:08:56;;;;;;;56.90;54.47;;;25.70;48.00;;;;;;4973980;28;20845;-74
2022/07/26 12:11:25;;;;;;;55.20;52.60;;;26.00;47.50;;;;;;4965914;28;20895;-73
2022/07/26 12:14:00;;;;;;;40.80;39.07;;;25.70;47.60;;;;;;4963163;28;20895;-72
2022/07/26 12:16:42;;;;;;;37.60;35.80;;;25.80;47.30;;;;;;4967734;28;20462;-72
2022/07/26 12:19:23;;;;;;;48.03;45.93;;;26.10;46.50;;;;;;4961982;28;20557;-73
2022/07/26 12:21:53;;;;;;;41.90;40.10;;;26.30;46.30;;;;;;4956989;28;20456;-71
2022/07/26 12:24:38;;;;;;;35.53;34.03;;;26.60;44.50;;;;;;4959994;28;20486;-75
2022/07/26 12:27:09;;;;;;;35.10;33.60;;;26.60;43.70;;;;;;4956338;28;20592;-76
2022/07/26 12:29:36;;;;;;;43.40;41.60;;;26.70;44.30;;;;;;4963186;28;20581;-74
2022/07/26 12:32:07;;;;;;;48.60;46.53;;;26.50;45.20;;;;;;4965677;28;20495;-72
2022/07/26 12:34:35;;;;;;;37.90;36.00;;;26.00;46.20;;;;;;4966369;28;20544;-73
2022/07/26 12:37:14;;;;;;;39.43;37.63;;;25.90;46.60;;;;;;4973801;28;20455;-74
2022/07/26 12:39:42;;;;;;;58.27;55.73;;;26.30;45.20;;;;;;4972433;28;20555;-76
2022/07/26 12:42:26;;;;;;;37.77;36.07;;;26.60;45.00;;;;;;4989097;28;21232;-76